sensor_id;sensor_type;location;lat;lon;timestamp;temperature;humidity
67603;DHT22;54417;47.454;18.918;2024-03-23T00:56:46;4.21;92.21
67603;DHT22;54417;47.454;18.918;2024-03-23T01:01:54;4.18;92.17
67603;DHT22;54417;47.454;18.918;2024-03-23T01:07:02;4.13;92.92
67603;DHT22;54417;47.454;18.918;2024-03-23T01:12:11;4.13;92.70
67603;DHT22;54417;47.454;18.918;2024-03-23T01:17:19;4.08;92.61
67603;DHT22;54417;47.454;18.918;2024-03-23T01:22:27;4.05;92.46
67603;DHT22;54417;47.454;18.918;2024-03-23T01:27:36;3.99;92.97
67603;DHT22;54417;47.454;18.918;2024-03-23T01:32:39;3.91;93.59
67603;DHT22;54417;47.454;18.918;2024-03-23T01:37:47;3.95;93.36
67603;DHT22;54417;47.454;18.918;2024-03-23T01:42:56;3.94;93.25
67603;DHT22;54417;47.454;18.918;2024-03-23T01:48:05;3.88;93.14
67603;DHT22;54417;47.454;18.918;2024-03-23T01:53:13;3.87;93.07
67603;DHT22;54417;47.454;18.918;2024-03-23T01:58:25;3.75;92.90
67603;DHT22;54417;47.454;18.918;2024-03-23T02:03:33;3.73;92.52
67603;DHT22;54417;47.454;18.918;2024-03-23T02:08:40;3.57;93.06
67603;DHT22;54417;47.454;18.918;2024-03-23T02:13:49;3.52;93.31
67603;DHT22;54417;47.454;18.918;2024-03-23T02:18:52;3.49;93.47
67603;DHT22;54417;47.454;18.918;2024-03-23T02:23:56;3.42;93.60
67603;DHT22;54417;47.454;18.918;2024-03-23T02:29:04;3.42;94.08
67603;DHT22;54417;47.454;18.918;2024-03-23T02:34:12;3.40;93.96
67603;DHT22;54417;47.454;18.918;2024-03-23T02:39:21;3.34;94.11
67603;DHT22;54417;47.454;18.918;2024-03-23T02:44:29;3.26;94.90
67603;DHT22;54417;47.454;18.918;2024-03-23T02:49:37;3.26;95.34
67603;DHT22;54417;47.454;18.918;2024-03-23T02:54:46;3.20;95.30
67603;DHT22;54417;47.454;18.918;2024-03-23T02:59:49;3.19;95.59
67603;DHT22;54417;47.454;18.918;2024-03-23T03:04:56;3.20;95.42
67603;DHT22;54417;47.454;18.918;2024-03-23T03:10:06;3.23;95.29
67603;DHT22;54417;47.454;18.918;2024-03-23T03:15:17;3.19;95.23
67603;DHT22;54417;47.454;18.918;2024-03-23T03:20:25;3.23;95.08
67603;DHT22;54417;47.454;18.918;2024-03-23T03:25:34;3.29;94.81
67603;DHT22;54417;47.454;18.918;2024-03-23T03:30:42;3.36;94.53
67603;DHT22;54417;47.454;18.918;2024-03-23T03:35:45;3.32;94.53
67603;DHT22;54417;47.454;18.918;2024-03-23T03:40:54;3.34;94.57
67603;DHT22;54417;47.454;18.918;2024-03-23T03:46:02;3.34;94.64
67603;DHT22;54417;47.454;18.918;2024-03-23T03:51:10;3.42;94.71
67603;DHT22;54417;47.454;18.918;2024-03-23T03:56:19;3.43;94.56
67603;DHT22;54417;47.454;18.918;2024-03-23T04:01:28;3.49;94.48
67603;DHT22;54417;47.454;18.918;2024-03-23T04:06:31;3.57;94.11
67603;DHT22;54417;47.454;18.918;2024-03-23T04:11:41;3.69;93.63
67603;DHT22;54417;47.454;18.918;2024-03-23T04:16:48;3.74;93.33
67603;DHT22;54417;47.454;18.918;2024-03-23T04:21:56;3.71;92.92
67603;DHT22;54417;47.454;18.918;2024-03-23T04:27:05;3.59;92.96
67603;DHT22;54417;47.454;18.918;2024-03-23T04:32:13;3.50;93.88
67603;DHT22;54417;47.454;18.918;2024-03-23T04:37:16;3.53;94.64
67603;DHT22;54417;47.454;18.918;2024-03-23T04:42:25;3.60;94.27
67603;DHT22;54417;47.454;18.918;2024-03-23T04:47:34;3.63;94.34
67603;DHT22;54417;47.454;18.918;2024-03-23T04:52:38;3.66;94.29
67603;DHT22;54417;47.454;18.918;2024-03-23T04:57:43;3.80;94.18
67603;DHT22;54417;47.454;18.918;2024-03-23T05:02:51;3.91;93.79
67603;DHT22;54417;47.454;18.918;2024-03-23T05:07:54;4.08;93.31
67603;DHT22;54417;47.454;18.918;2024-03-23T05:13:03;4.16;92.53
67603;DHT22;54417;47.454;18.918;2024-03-23T05:18:11;4.35;92.71
67603;DHT22;54417;47.454;18.918;2024-03-23T05:23:19;4.48;92.34
67603;DHT22;54417;47.454;18.918;2024-03-23T05:28:28;4.61;92.32
67603;DHT22;54417;47.454;18.918;2024-03-23T05:33:31;4.80;91.64
67603;DHT22;54417;47.454;18.918;2024-03-23T05:38:39;5.05;91.24
67603;DHT22;54417;47.454;18.918;2024-03-23T05:43:48;5.45;89.40
67603;DHT22;54417;47.454;18.918;2024-03-23T05:49:01;5.45;88.63
67603;DHT22;54417;47.454;18.918;2024-03-23T05:54:09;5.63;88.44
67603;DHT22;54417;47.454;18.918;2024-03-23T05:59:19;5.97;87.97
67603;DHT22;54417;47.454;18.918;2024-03-23T06:04:22;6.31;86.99
67603;DHT22;54417;47.454;18.918;2024-03-23T06:09:25;6.59;86.27
67603;DHT22;54417;47.454;18.918;2024-03-23T06:14:34;7.10;85.77
67603;DHT22;54417;47.454;18.918;2024-03-23T06:19:42;7.63;85.15
67603;DHT22;54417;47.454;18.918;2024-03-23T06:24:50;8.14;84.32
67603;DHT22;54417;47.454;18.918;2024-03-23T06:29:59;8.60;83.40
67603;DHT22;54417;47.454;18.918;2024-03-23T06:35:07;8.82;82.27
67603;DHT22;54417;47.454;18.918;2024-03-23T06:40:16;8.96;82.33
67603;DHT22;54417;47.454;18.918;2024-03-23T06:45:20;9.61;81.91
67603;DHT22;54417;47.454;18.918;2024-03-23T06:50:29;10.01;79.93
67603;DHT22;54417;47.454;18.918;2024-03-23T06:55:37;10.39;78.14
67603;DHT22;54417;47.454;18.918;2024-03-23T07:00:46;10.73;77.07
67603;DHT22;54417;47.454;18.918;2024-03-23T07:05:57;11.26;75.89
67603;DHT22;54417;47.454;18.918;2024-03-23T07:11:05;11.83;74.54
67603;DHT22;54417;47.454;18.918;2024-03-23T07:16:15;12.55;73.45
67603;DHT22;54417;47.454;18.918;2024-03-23T07:21:18;12.99;72.12
67603;DHT22;54417;47.454;18.918;2024-03-23T07:26:26;13.26;70.35
67603;DHT22;54417;47.454;18.918;2024-03-23T07:31:35;13.04;70.57
67603;DHT22;54417;47.454;18.918;2024-03-23T07:36:43;13.26;70.37
67603;DHT22;54417;47.454;18.918;2024-03-23T07:41:50;13.66;69.73
67603;DHT22;54417;47.454;18.918;2024-03-23T07:46:55;14.10;69.61
67603;DHT22;54417;47.454;18.918;2024-03-23T07:52:03;14.27;68.67
67603;DHT22;54417;47.454;18.918;2024-03-23T07:57:11;14.54;67.22
67603;DHT22;54417;47.454;18.918;2024-03-23T08:02:20;14.61;67.87
67603;DHT22;54417;47.454;18.918;2024-03-23T08:07:22;14.81;67.57
67603;DHT22;54417;47.454;18.918;2024-03-23T08:12:26;15.13;67.21
67603;DHT22;54417;47.454;18.918;2024-03-23T08:17:36;15.64;65.93
67603;DHT22;54417;47.454;18.918;2024-03-23T08:22:43;16.07;65.44
67603;DHT22;54417;47.454;18.918;2024-03-23T08:27:51;16.57;63.69
67603;DHT22;54417;47.454;18.918;2024-03-23T08:33:00;17.15;62.22
67603;DHT22;54417;47.454;18.918;2024-03-23T08:38:08;17.53;62.86
67603;DHT22;54417;47.454;18.918;2024-03-23T08:43:16;17.49;60.73
67603;DHT22;54417;47.454;18.918;2024-03-23T08:48:25;17.13;62.26
67603;DHT22;54417;47.454;18.918;2024-03-23T08:53:34;17.25;62.08
67603;DHT22;54417;47.454;18.918;2024-03-23T08:58:42;17.34;60.95
67603;DHT22;54417;47.454;18.918;2024-03-23T09:03:51;17.66;62.25
67603;DHT22;54417;47.454;18.918;2024-03-23T09:08:54;17.69;60.39
67603;DHT22;54417;47.454;18.918;2024-03-23T09:14:02;17.94;61.60
67603;DHT22;54417;47.454;18.918;2024-03-23T09:19:11;18.58;60.69
67603;DHT22;54417;47.454;18.918;2024-03-23T09:24:19;18.82;58.77
67603;DHT22;54417;47.454;18.918;2024-03-23T09:29:27;19.33;57.33
67603;DHT22;54417;47.454;18.918;2024-03-23T09:34:31;19.27;55.56
67603;DHT22;54417;47.454;18.918;2024-03-23T09:39:39;18.98;55.15
67603;DHT22;54417;47.454;18.918;2024-03-23T09:44:50;19.02;56.53
67603;DHT22;54417;47.454;18.918;2024-03-23T09:50:00;19.46;56.15
67603;DHT22;54417;47.454;18.918;2024-03-23T09:55:08;19.61;54.90
67603;DHT22;54417;47.454;18.918;2024-03-23T10:00:13;19.77;54.11
67603;DHT22;54417;47.454;18.918;2024-03-23T10:05:22;19.67;55.02
67603;DHT22;54417;47.454;18.918;2024-03-23T10:10:30;19.84;53.93
67603;DHT22;54417;47.454;18.918;2024-03-23T10:15:38;20.22;52.53
67603;DHT22;54417;47.454;18.918;2024-03-23T10:20:51;20.36;52.46
67603;DHT22;54417;47.454;18.918;2024-03-23T10:26:12;20.52;51.72
67603;DHT22;54417;47.454;18.918;2024-03-23T10:31:20;20.63;50.85
67603;DHT22;54417;47.454;18.918;2024-03-23T10:36:30;20.36;47.32
67603;DHT22;54417;47.454;18.918;2024-03-23T10:41:39;20.23;48.61
67603;DHT22;54417;47.454;18.918;2024-03-23T10:46:48;20.47;48.98
67603;DHT22;54417;47.454;18.918;2024-03-23T10:51:59;20.52;49.86
67603;DHT22;54417;47.454;18.918;2024-03-23T10:57:05;20.53;49.23
67603;DHT22;54417;47.454;18.918;2024-03-23T11:02:19;20.88;49.63
67603;DHT22;54417;47.454;18.918;2024-03-23T11:07:30;21.02;49.19
67603;DHT22;54417;47.454;18.918;2024-03-23T11:12:38;21.05;48.18
67603;DHT22;54417;47.454;18.918;2024-03-23T11:17:41;21.34;47.50
67603;DHT22;54417;47.454;18.918;2024-03-23T11:22:50;21.15;47.33
67603;DHT22;54417;47.454;18.918;2024-03-23T11:28:11;21.15;46.51
67603;DHT22;54417;47.454;18.918;2024-03-23T11:33:19;21.24;46.90
67603;DHT22;54417;47.454;18.918;2024-03-23T11:38:28;21.62;46.54
67603;DHT22;54417;47.454;18.918;2024-03-23T11:43:30;22.33;45.20
67603;DHT22;54417;47.454;18.918;2024-03-23T11:48:38;22.77;43.43
67603;DHT22;54417;47.454;18.918;2024-03-23T11:53:47;22.77;42.46
67603;DHT22;54417;47.454;18.918;2024-03-23T11:58:55;22.98;42.81
67603;DHT22;54417;47.454;18.918;2024-03-23T12:04:03;22.95;43.04
67603;DHT22;54417;47.454;18.918;2024-03-23T12:09:13;22.81;43.41
67603;DHT22;54417;47.454;18.918;2024-03-23T12:14:16;22.61;42.66
67603;DHT22;54417;47.454;18.918;2024-03-23T12:19:23;22.61;42.88
67603;DHT22;54417;47.454;18.918;2024-03-23T12:24:28;22.54;42.15
67603;DHT22;54417;47.454;18.918;2024-03-23T12:29:35;22.40;42.11
67603;DHT22;54417;47.454;18.918;2024-03-23T12:34:45;22.38;42.70
67603;DHT22;54417;47.454;18.918;2024-03-23T12:39:54;22.37;42.33
67603;DHT22;54417;47.454;18.918;2024-03-23T12:44:57;21.77;42.28
67603;DHT22;54417;47.454;18.918;2024-03-23T12:50:06;21.62;44.05
67603;DHT22;54417;47.454;18.918;2024-03-23T12:55:15;21.07;43.36
67603;DHT22;54417;47.454;18.918;2024-03-23T13:00:18;20.79;44.24
67603;DHT22;54417;47.454;18.918;2024-03-23T13:05:26;20.74;44.68
67603;DHT22;54417;47.454;18.918;2024-03-23T13:10:35;20.53;45.79
67603;DHT22;54417;47.454;18.918;2024-03-23T13:15:38;20.40;46.03
67603;DHT22;54417;47.454;18.918;2024-03-23T13:20:46;20.28;44.99
67603;DHT22;54417;47.454;18.918;2024-03-23T13:25:56;20.09;45.33
67603;DHT22;54417;47.454;18.918;2024-03-23T13:30:58;19.77;44.94
67603;DHT22;54417;47.454;18.918;2024-03-23T13:36:09;19.74;46.20
67603;DHT22;54417;47.454;18.918;2024-03-23T13:41:19;19.73;46.55
67603;DHT22;54417;47.454;18.918;2024-03-23T13:46:22;19.78;46.15
67603;DHT22;54417;47.454;18.918;2024-03-23T13:51:25;19.79;46.81
67603;DHT22;54417;47.454;18.918;2024-03-23T13:56:35;19.82;47.70
67603;DHT22;54417;47.454;18.918;2024-03-23T14:01:37;19.91;46.33
67603;DHT22;54417;47.454;18.918;2024-03-23T14:06:45;19.91;47.32
67603;DHT22;54417;47.454;18.918;2024-03-23T14:11:54;19.84;47.93
67603;DHT22;54417;47.454;18.918;2024-03-23T14:17:02;19.65;47.97
67603;DHT22;54417;47.454;18.918;2024-03-23T14:22:05;19.57;46.80
67603;DHT22;54417;47.454;18.918;2024-03-23T14:27:14;19.50;48.00
67603;DHT22;54417;47.454;18.918;2024-03-23T14:32:22;19.41;47.76
67603;DHT22;54417;47.454;18.918;2024-03-23T14:37:30;19.30;48.21
67603;DHT22;54417;47.454;18.918;2024-03-23T14:42:39;19.23;49.47
67603;DHT22;54417;47.454;18.918;2024-03-23T14:47:47;19.12;49.37
67603;DHT22;54417;47.454;18.918;2024-03-23T14:52:55;18.95;50.07
67603;DHT22;54417;47.454;18.918;2024-03-23T14:58:04;18.82;49.92
67603;DHT22;54417;47.454;18.918;2024-03-23T15:03:12;18.82;49.32
67603;DHT22;54417;47.454;18.918;2024-03-23T15:08:20;18.72;50.99
67603;DHT22;54417;47.454;18.918;2024-03-23T15:13:29;18.62;50.19
67603;DHT22;54417;47.454;18.918;2024-03-23T15:18:37;18.51;51.16
67603;DHT22;54417;47.454;18.918;2024-03-23T15:23:45;18.45;51.18
67603;DHT22;54417;47.454;18.918;2024-03-23T15:28:55;18.34;51.38
67603;DHT22;54417;47.454;18.918;2024-03-23T15:34:18;18.27;51.88
67603;DHT22;54417;47.454;18.918;2024-03-23T15:39:23;18.14;51.57
67603;DHT22;54417;47.454;18.918;2024-03-23T15:44:32;18.07;52.15
67603;DHT22;54417;47.454;18.918;2024-03-23T15:49:35;18.03;52.55
67603;DHT22;54417;47.454;18.918;2024-03-23T15:54:43;17.92;52.94
67603;DHT22;54417;47.454;18.918;2024-03-23T15:59:52;17.99;52.55
67603;DHT22;54417;47.454;18.918;2024-03-23T16:05:00;18.82;51.16
67603;DHT22;54417;47.454;18.918;2024-03-23T16:10:10;18.89;50.57
67603;DHT22;54417;47.454;18.918;2024-03-23T16:15:20;18.29;52.19
67603;DHT22;54417;47.454;18.918;2024-03-23T16:20:28;18.02;52.12
67603;DHT22;54417;47.454;18.918;2024-03-23T16:25:31;17.75;53.03
67603;DHT22;54417;47.454;18.918;2024-03-23T16:30:41;17.46;53.89
67603;DHT22;54417;47.454;18.918;2024-03-23T16:35:58;17.15;54.55
67603;DHT22;54417;47.454;18.918;2024-03-23T16:41:02;16.93;54.63
67603;DHT22;54417;47.454;18.918;2024-03-23T16:46:13;16.70;55.46
67603;DHT22;54417;47.454;18.918;2024-03-23T16:51:22;16.46;55.98
67603;DHT22;54417;47.454;18.918;2024-03-23T16:56:24;16.33;56.16
67603;DHT22;54417;47.454;18.918;2024-03-23T17:01:34;15.51;57.78
67603;DHT22;54417;47.454;18.918;2024-03-23T17:06:36;13.98;61.40
67603;DHT22;54417;47.454;18.918;2024-03-23T17:11:40;13.34;63.83
67603;DHT22;54417;47.454;18.918;2024-03-23T17:16:51;12.99;65.09
67603;DHT22;54417;47.454;18.918;2024-03-23T17:21:59;12.85;65.94
67603;DHT22;54417;47.454;18.918;2024-03-23T17:27:06;12.60;66.84
67603;DHT22;54417;47.454;18.918;2024-03-23T17:32:17;12.41;67.71
67603;DHT22;54417;47.454;18.918;2024-03-23T17:37:20;12.22;68.16
67603;DHT22;54417;47.454;18.918;2024-03-23T17:42:24;12.08;68.94
67603;DHT22;54417;47.454;18.918;2024-03-23T17:47:36;11.95;69.80
67603;DHT22;54417;47.454;18.918;2024-03-23T17:52:44;11.84;70.34
67603;DHT22;54417;47.454;18.918;2024-03-23T17:57:47;11.62;71.38
67603;DHT22;54417;47.454;18.918;2024-03-23T18:02:57;11.38;73.20
67603;DHT22;54417;47.454;18.918;2024-03-23T18:08:05;11.19;72.75
67603;DHT22;54417;47.454;18.918;2024-03-23T18:13:09;11.00;72.15
67603;DHT22;54417;47.454;18.918;2024-03-23T18:18:18;10.90;70.37
67603;DHT22;54417;47.454;18.918;2024-03-23T18:23:26;10.63;69.01
67603;DHT22;54417;47.454;18.918;2024-03-23T18:28:34;10.37;68.45
67603;DHT22;54417;47.454;18.918;2024-03-23T18:33:43;10.17;69.26
67603;DHT22;54417;47.454;18.918;2024-03-23T18:38:51;10.08;69.47
67603;DHT22;54417;47.454;18.918;2024-03-23T18:43:59;9.98;69.68
67603;DHT22;54417;47.454;18.918;2024-03-23T18:49:09;9.87;71.09
67603;DHT22;54417;47.454;18.918;2024-03-23T18:54:17;9.77;70.94
67603;DHT22;54417;47.454;18.918;2024-03-23T18:59:25;9.68;71.88
67603;DHT22;54417;47.454;18.918;2024-03-23T19:04:30;9.61;72.59
67603;DHT22;54417;47.454;18.918;2024-03-23T19:09:37;9.46;73.28
67603;DHT22;54417;47.454;18.918;2024-03-23T19:14:46;9.37;73.99
67603;DHT22;54417;47.454;18.918;2024-03-23T19:19:57;9.22;75.84
67603;DHT22;54417;47.454;18.918;2024-03-23T19:25:05;9.08;76.58
67603;DHT22;54417;47.454;18.918;2024-03-23T19:30:16;8.89;78.48
67603;DHT22;54417;47.454;18.918;2024-03-23T19:35:25;8.54;82.28
67603;DHT22;54417;47.454;18.918;2024-03-23T19:40:28;8.00;86.67
67603;DHT22;54417;47.454;18.918;2024-03-23T19:45:36;7.59;90.54
67603;DHT22;54417;47.454;18.918;2024-03-23T19:50:54;7.25;91.22
67603;DHT22;54417;47.454;18.918;2024-03-23T19:56:02;7.03;90.58
67603;DHT22;54417;47.454;18.918;2024-03-23T20:01:15;6.80;92.76
67603;DHT22;54417;47.454;18.918;2024-03-23T20:06:24;6.72;93.52
67603;DHT22;54417;47.454;18.918;2024-03-23T20:11:32;6.59;93.53
67603;DHT22;54417;47.454;18.918;2024-03-23T20:16:35;6.55;92.92
67603;DHT22;54417;47.454;18.918;2024-03-23T20:21:45;6.46;93.81
67603;DHT22;54417;47.454;18.918;2024-03-23T20:26:52;6.39;94.83
67603;DHT22;54417;47.454;18.918;2024-03-23T20:32:01;6.36;94.34
67603;DHT22;54417;47.454;18.918;2024-03-23T20:37:10;6.36;98.17
67603;DHT22;54417;47.454;18.918;2024-03-23T20:42:18;6.34;94.10
67603;DHT22;54417;47.454;18.918;2024-03-23T20:47:26;6.36;92.94
67603;DHT22;54417;47.454;18.918;2024-03-23T20:52:35;6.34;93.30
67603;DHT22;54417;47.454;18.918;2024-03-23T20:57:43;6.39;92.18
67603;DHT22;54417;47.454;18.918;2024-03-23T21:02:50;6.42;91.31
67603;DHT22;54417;47.454;18.918;2024-03-23T21:08:00;6.56;89.61
67603;DHT22;54417;47.454;18.918;2024-03-23T21:13:07;6.68;89.18
67603;DHT22;54417;47.454;18.918;2024-03-23T21:18:16;6.76;88.32
67603;DHT22;54417;47.454;18.918;2024-03-23T21:23:21;6.90;86.11
67603;DHT22;54417;47.454;18.918;2024-03-23T21:28:23;6.89;86.47
67603;DHT22;54417;47.454;18.918;2024-03-23T21:33:31;6.93;85.49
67603;DHT22;54417;47.454;18.918;2024-03-23T21:38:37;6.93;84.63
67603;DHT22;54417;47.454;18.918;2024-03-23T21:43:39;7.10;81.45
67603;DHT22;54417;47.454;18.918;2024-03-23T21:48:48;7.08;83.29
67603;DHT22;54417;47.454;18.918;2024-03-23T21:53:52;6.97;84.80
67603;DHT22;54417;47.454;18.918;2024-03-23T21:59:02;6.94;83.13
67603;DHT22;54417;47.454;18.918;2024-03-23T22:04:10;6.92;83.69
67603;DHT22;54417;47.454;18.918;2024-03-23T22:09:14;6.89;84.60
67603;DHT22;54417;47.454;18.918;2024-03-23T22:14:17;6.89;85.23
67603;DHT22;54417;47.454;18.918;2024-03-23T22:19:19;6.87;85.95
67603;DHT22;54417;47.454;18.918;2024-03-23T22:24:29;6.89;85.65
67603;DHT22;54417;47.454;18.918;2024-03-23T22:29:36;6.97;84.74
67603;DHT22;54417;47.454;18.918;2024-03-23T22:34:39;7.04;85.28
67603;DHT22;54417;47.454;18.918;2024-03-23T22:39:49;6.96;85.26
67603;DHT22;54417;47.454;18.918;2024-03-23T22:44:57;7.13;82.46
67603;DHT22;54417;47.454;18.918;2024-03-23T22:50:05;7.34;80.12
67603;DHT22;54417;47.454;18.918;2024-03-23T22:55:17;7.48;80.07
67603;DHT22;54417;47.454;18.918;2024-03-23T23:00:25;7.52;79.70
67603;DHT22;54417;47.454;18.918;2024-03-23T23:05:33;7.45;79.92
67603;DHT22;54417;47.454;18.918;2024-03-23T23:10:45;7.40;81.56
67603;DHT22;54417;47.454;18.918;2024-03-23T23:15:49;7.28;82.65
67603;DHT22;54417;47.454;18.918;2024-03-23T23:21:00;7.20;81.12
67603;DHT22;54417;47.454;18.918;2024-03-23T23:26:04;7.11;82.00
67603;DHT22;54417;47.454;18.918;2024-03-23T23:31:12;7.07;81.11
67603;DHT22;54417;47.454;18.918;2024-03-23T23:36:20;7.10;80.89
67603;DHT22;54417;47.454;18.918;2024-03-23T23:41:24;7.04;81.61
67603;DHT22;54417;47.454;18.918;2024-03-23T23:46:32;7.03;82.91
67603;DHT22;54417;47.454;18.918;2024-03-23T23:51:40;6.93;83.10
67603;DHT22;54417;47.454;18.918;2024-03-23T23:56:49;6.82;82.91
